Time;durP1;ratioP1;P1;durP2;ratioP2;P2;SDS_P1;SDS_P2;PMS_P1;PMS_P2;Temp;Humidity;BMP_temperature;BMP_pressure;BME280_temperature;BME280_humidity;BME280_pressure;Samples;Min_cycle;Max_cycle;Signal;HPM_P1;HPM_P2
2023/02/22 00:03:57;;;;;;;16.48;15.27;;;;;;;;;;4993597;28;20439;-58
2023/02/22 00:06:23;;;;;;;14.73;13.82;;;;;;;;;;4993507;28;20036;-59
2023/02/22 00:08:51;;;;;;;16.65;15.65;;;;;;;;;;4991943;28;20076;-59
2023/02/22 00:11:17;;;;;;;15.30;14.40;;;;;;;;;;4993788;28;20045;-63
2023/02/22 00:13:43;;;;;;;16.27;15.27;;;;;;;;;;4991876;28;20026;-59
2023/02/22 00:16:13;;;;;;;15.02;14.13;;;;;;;;;;4993631;28;20073;-59
2023/02/22 00:18:38;;;;;;;17.25;16.00;;;;;;;;;;4996325;28;20038;-59
2023/02/22 00:21:09;;;;;;;17.08;15.95;;;;;;;;;;4992785;28;20037;-62
2023/02/22 00:23:38;;;;;;;15.82;14.93;;;;;;;;;;4993883;28;20042;-59
2023/02/22 00:26:05;;;;;;;15.50;14.55;;;;;;;;;;4991438;28;20041;-62
2023/02/22 00:28:30;;;;;;;16.23;15.23;;;;;;;;;;4991561;28;20118;-63
2023/02/22 00:30:56;;;;;;;14.85;13.95;;;;;;;;;;4991590;28;20109;-64
2023/02/22 00:33:22;;;;;;;14.68;13.80;;;;;;;;;;4994255;28;20121;-59
2023/02/22 00:35:47;;;;;;;15.30;14.40;;;;;;;;;;4993401;28;20046;-59
2023/02/22 00:38:16;;;;;;;15.15;14.15;;;;;;;;;;4992097;28;20034;-59
2023/02/22 00:40:41;;;;;;;14.05;13.15;;;;;;;;;;4991993;28;20092;-59
2023/02/22 00:43:06;;;;;;;14.00;13.20;;;;;;;;;;4992597;28;20043;-59
2023/02/22 00:45:34;;;;;;;15.05;14.15;;;;;;;;;;4992677;28;20022;-59
2023/02/22 00:47:59;;;;;;;14.05;13.13;;;;;;;;;;4992864;28;20066;-60
2023/02/22 00:50:27;;;;;;;13.23;12.43;;;;;;;;;;4996537;28;20068;-60
2023/02/22 00:52:55;;;;;;;13.80;12.73;;;;;;;;;;4989610;28;20353;-60
2023/02/22 00:55:30;;;;;;;15.02;14.13;;;;;;;;;;4993094;28;20033;-60
2023/02/22 00:57:57;;;;;;;14.27;13.35;;;;;;;;;;4993836;28;20364;-60
2023/02/22 01:00:28;;;;;;;13.55;12.75;;;;;;;;;;5010778;28;20077;-60
2023/02/22 01:02:55;;;;;;;14.00;13.02;;;;;;;;;;4990054;28;20038;-60
2023/02/22 01:05:24;;;;;;;12.73;11.93;;;;;;;;;;4993353;28;20184;-60
2023/02/22 01:07:57;;;;;;;13.60;12.80;;;;;;;;;;4993875;28;20045;-60
2023/02/22 01:10:24;;;;;;;15.32;14.25;;;;;;;;;;4990172;28;20033;-60
2023/02/22 01:12:51;;;;;;;15.18;13.95;;;;;;;;;;4995119;28;20434;-60
2023/02/22 01:15:23;;;;;;;13.45;12.65;;;;;;;;;;4994980;28;20049;-60
2023/02/22 01:17:51;;;;;;;14.15;13.35;;;;;;;;;;4999449;28;20461;-60
2023/02/22 01:20:17;;;;;;;15.50;14.60;;;;;;;;;;4997029;28;20372;-60
2023/02/22 01:22:47;;;;;;;14.20;13.30;;;;;;;;;;5005630;28;20037;-60
2023/02/22 01:25:17;;;;;;;14.77;13.77;;;;;;;;;;4997169;28;20093;-61
2023/02/22 01:27:43;;;;;;;15.88;14.90;;;;;;;;;;4996251;28;20045;-59
2023/02/22 01:30:12;;;;;;;13.55;12.75;;;;;;;;;;4997292;28;20045;-59
2023/02/22 01:32:40;;;;;;;14.52;13.63;;;;;;;;;;4998881;28;20034;-59
2023/02/22 01:35:10;;;;;;;13.63;12.73;;;;;;;;;;4994167;28;20042;-59
2023/02/22 01:37:35;;;;;;;15.65;14.63;;;;;;;;;;4993492;28;20053;-59
2023/02/22 01:40:03;;;;;;;13.98;13.18;;;;;;;;;;4999621;28;20356;-59
2023/02/22 01:42:29;;;;;;;18.35;15.50;;;;;;;;;;4995051;28;20034;-59
2023/02/22 01:45:34;;;;;;;13.75;12.85;;;;;;;;;;4996725;28;20033;-59
2023/02/22 01:48:33;;;;;;;15.88;14.75;;;;;;;;;;4995437;28;20080;-59
2023/02/22 01:51:20;;;;;;;14.95;14.05;;;;;;;;;;4994339;28;20574;-59
2023/02/22 01:54:26;;;;;;;14.32;13.43;;;;;;;;;;4996524;28;20428;-59
2023/02/22 01:57:02;;;;;;;15.95;14.88;;;;;;;;;;4995386;28;20703;-59
2023/02/22 01:59:32;;;;;;;15.75;14.73;;;;;;;;;;4997875;28;20049;-59
2023/02/22 02:01:59;;;;;;;16.58;15.48;;;;;;;;;;4995293;28;20747;-59
2023/02/22 02:04:25;;;;;;;14.57;13.73;;;;;;;;;;4994736;28;20044;-63
2023/02/22 02:06:54;;;;;;;14.77;13.88;;;;;;;;;;4994291;28;20062;-59
2023/02/22 02:09:32;;;;;;;15.45;14.55;;;;;;;;;;4995650;28;20040;-60
2023/02/22 02:12:01;;;;;;;16.95;15.93;;;;;;;;;;4993636;28;20058;-60
2023/02/22 02:14:26;;;;;;;15.82;14.93;;;;;;;;;;4998642;28;20483;-60
2023/02/22 02:16:53;;;;;;;14.98;14.07;;;;;;;;;;4995782;28;20124;-60
2023/02/22 02:19:46;;;;;;;14.93;14.02;;;;;;;;;;4993522;28;20049;-60
2023/02/22 02:22:24;;;;;;;14.50;13.52;;;;;;;;;;4993879;28;20527;-60
2023/02/22 02:25:08;;;;;;;15.15;14.20;;;;;;;;;;4992487;28;20468;-60
2023/02/22 02:28:00;;;;;;;15.23;14.32;;;;;;;;;;4995503;28;20428;-60
2023/02/22 02:30:47;;;;;;;14.50;13.57;;;;;;;;;;4994720;28;20041;-59
2023/02/22 02:33:30;;;;;;;13.95;13.13;;;;;;;;;;4996098;28;20049;-59
2023/02/22 02:36:09;;;;;;;14.15;13.23;;;;;;;;;;4993688;28;20046;-59
2023/02/22 02:38:48;;;;;;;13.23;12.43;;;;;;;;;;4990475;28;20034;-59
2023/02/22 02:41:26;;;;;;;13.75;12.85;;;;;;;;;;4993132;28;20037;-59
2023/02/22 02:44:12;;;;;;;12.57;11.82;;;;;;;;;;4993160;28;20034;-61
2023/02/22 02:46:45;;;;;;;14.73;13.82;;;;;;;;;;4993103;28;20034;-59
2023/02/22 02:49:16;;;;;;;15.70;14.77;;;;;;;;;;4996025;28;20129;-59
2023/02/22 02:51:47;;;;;;;14.13;12.80;;;;;;;;;;4994791;28;20038;-59
2023/02/22 02:54:14;;;;;;;14.63;13.63;;;;;;;;;;4995516;28;20038;-59
2023/02/22 02:56:41;;;;;;;14.00;13.10;;;;;;;;;;4993619;28;20046;-59
2023/02/22 02:59:27;;;;;;;15.02;14.07;;;;;;;;;;4994878;28;20026;-60
2023/02/22 03:01:52;;;;;;;14.43;13.52;;;;;;;;;;4994511;28;20116;-60
2023/02/22 03:04:41;;;;;;;13.88;13.00;;;;;;;;;;4993276;28;20479;-60
2023/02/22 03:07:34;;;;;;;13.48;12.68;;;;;;;;;;4992371;28;20128;-61
2023/02/22 03:10:37;;;;;;;14.45;13.45;;;;;;;;;;4991697;28;20053;-60
2023/02/22 03:13:08;;;;;;;13.45;12.65;;;;;;;;;;4996984;28;20050;-60
2023/02/22 03:16:04;;;;;;;13.98;13.07;;;;;;;;;;4994894;28;20056;-60
2023/02/22 03:18:55;;;;;;;14.88;13.65;;;;;;;;;;4992941;28;20089;-60
2023/02/22 03:21:27;;;;;;;14.50;13.38;;;;;;;;;;4993904;28;20037;-60
2023/02/22 03:24:08;;;;;;;13.25;12.45;;;;;;;;;;4993417;28;20728;-60
2023/02/22 03:26:51;;;;;;;13.50;12.50;;;;;;;;;;4994827;28;20038;-60
2023/02/22 03:29:19;;;;;;;13.63;12.73;;;;;;;;;;4992324;28;20075;-60
2023/02/22 03:31:53;;;;;;;13.63;12.63;;;;;;;;;;4992713;28;20042;-60
2023/02/22 03:34:26;;;;;;;13.55;12.63;;;;;;;;;;4993957;28;20066;-60
2023/02/22 03:37:14;;;;;;;15.43;14.30;;;;;;;;;;4992286;28;20034;-60
2023/02/22 03:39:42;;;;;;;13.30;12.50;;;;;;;;;;4993173;28;20065;-60
2023/02/22 03:42:12;;;;;;;13.68;12.85;;;;;;;;;;4996399;28;20052;-60
2023/02/22 03:44:40;;;;;;;14.10;13.20;;;;;;;;;;4993054;28;20121;-60
2023/02/22 03:47:11;;;;;;;14.65;13.65;;;;;;;;;;4991936;28;20046;-60
2023/02/22 03:49:44;;;;;;;13.32;12.52;;;;;;;;;;4997802;28;20033;-60
2023/02/22 03:52:11;;;;;;;14.98;13.98;;;;;;;;;;4992799;28;20041;-60
2023/02/22 03:54:38;;;;;;;13.27;12.48;;;;;;;;;;4993416;28;20058;-60
2023/02/22 03:57:19;;;;;;;14.57;13.68;;;;;;;;;;4992911;28;20034;-60
2023/02/22 03:59:45;;;;;;;13.38;12.57;;;;;;;;;;4995107;28;20061;-60
2023/02/22 04:02:11;;;;;;;14.65;13.75;;;;;;;;;;4995214;28;20034;-60
2023/02/22 04:04:36;;;;;;;14.63;13.43;;;;;;;;;;4994122;28;20137;-61
2023/02/22 04:07:02;;;;;;;13.25;12.45;;;;;;;;;;4993623;28;20049;-61
2023/02/22 04:09:27;;;;;;;14.07;13.20;;;;;;;;;;4994127;28;20080;-60
2023/02/22 04:11:53;;;;;;;12.68;11.88;;;;;;;;;;4990741;28;20045;-60
2023/02/22 04:14:18;;;;;;;13.55;12.70;;;;;;;;;;4995391;28;21330;-60
2023/02/22 04:16:43;;;;;;;14.00;13.00;;;;;;;;;;4991436;28;20118;-60
2023/02/22 04:19:09;;;;;;;12.52;11.70;;;;;;;;;;4993810;28;20030;-60
2023/02/22 04:21:34;;;;;;;12.30;11.50;;;;;;;;;;4995843;28;20037;-59
2023/02/22 04:24:00;;;;;;;13.07;12.27;;;;;;;;;;4993817;28;20112;-60
2023/02/22 04:26:25;;;;;;;14.45;13.20;;;;;;;;;;4994865;28;20683;-60
2023/02/22 04:28:50;;;;;;;12.13;11.40;;;;;;;;;;4993309;28;20038;-59
2023/02/22 04:31:16;;;;;;;13.48;12.57;;;;;;;;;;4991254;28;20121;-59
2023/02/22 04:33:41;;;;;;;12.40;11.68;;;;;;;;;;4991865;28;20029;-59
2023/02/22 04:36:08;;;;;;;13.35;12.45;;;;;;;;;;4995630;28;20443;-59
2023/02/22 04:38:33;;;;;;;13.13;12.27;;;;;;;;;;4995631;28;20139;-60
2023/02/22 04:40:59;;;;;;;12.00;11.30;;;;;;;;;;4994727;28;20034;-60
2023/02/22 04:43:24;;;;;;;13.48;12.65;;;;;;;;;;4993095;28;20081;-60
2023/02/22 04:45:50;;;;;;;14.35;13.45;;;;;;;;;;4993489;28;20092;-60
2023/02/22 04:48:15;;;;;;;14.90;13.90;;;;;;;;;;4997032;28;20077;-60
2023/02/22 04:50:41;;;;;;;14.30;13.23;;;;;;;;;;4996438;28;20064;-60
2023/02/22 04:53:06;;;;;;;13.48;12.60;;;;;;;;;;4997789;28;20049;-61
2023/02/22 04:55:32;;;;;;;12.48;11.68;;;;;;;;;;4995451;28;20038;-60
2023/02/22 04:57:58;;;;;;;14.02;13.13;;;;;;;;;;4995521;28;20068;-60
2023/02/22 05:00:23;;;;;;;11.93;11.13;;;;;;;;;;4994718;28;20035;-60
2023/02/22 05:02:49;;;;;;;11.82;11.07;;;;;;;;;;4994642;28;20030;-60
2023/02/22 05:05:17;;;;;;;15.07;13.88;;;;;;;;;;4996001;28;20106;-60
2023/02/22 05:07:42;;;;;;;12.90;12.10;;;;;;;;;;4995928;28;20034;-59
2023/02/22 05:10:09;;;;;;;14.38;13.10;;;;;;;;;;4995984;28;20832;-59
2023/02/22 05:12:35;;;;;;;11.13;10.43;;;;;;;;;;4979606;28;20026;-60
2023/02/22 05:15:00;;;;;;;12.95;12.05;;;;;;;;;;4998004;28;20052;-60
2023/02/22 05:17:26;;;;;;;13.18;12.27;;;;;;;;;;4993317;28;20058;-60
2023/02/22 05:19:51;;;;;;;12.80;12.00;;;;;;;;;;4995284;28;20408;-61
2023/02/22 05:22:17;;;;;;;11.20;10.48;;;;;;;;;;4994736;28;20045;-61
2023/02/22 05:24:42;;;;;;;12.38;11.48;;;;;;;;;;4994740;28;20033;-61
2023/02/22 05:27:08;;;;;;;11.90;11.10;;;;;;;;;;4995844;28;20038;-61
2023/02/22 05:29:34;;;;;;;13.27;12.38;;;;;;;;;;4995189;28;20061;-59
2023/02/22 05:32:01;;;;;;;12.40;10.88;;;;;;;;;;4993199;28;20038;-60
2023/02/22 05:34:26;;;;;;;11.52;10.73;;;;;;;;;;4995933;28;20033;-59
2023/02/22 05:36:52;;;;;;;12.10;11.35;;;;;;;;;;5002933;28;20055;-59
2023/02/22 05:39:17;;;;;;;12.93;12.05;;;;;;;;;;4996156;28;20364;-60
2023/02/22 05:41:42;;;;;;;12.77;11.82;;;;;;;;;;4994780;28;20496;-60
2023/02/22 05:44:08;;;;;;;14.80;13.02;;;;;;;;;;4996599;28;20037;-59
2023/02/22 05:46:33;;;;;;;14.02;13.13;;;;;;;;;;4994598;28;20044;-59
2023/02/22 05:48:58;;;;;;;12.82;12.02;;;;;;;;;;4993716;28;20049;-58
2023/02/22 05:51:24;;;;;;;12.23;11.32;;;;;;;;;;4993598;28;20031;-58
2023/02/22 05:53:51;;;;;;;14.82;13.77;;;;;;;;;;4995680;28;20515;-58
2023/02/22 05:56:21;;;;;;;13.65;12.73;;;;;;;;;;4993760;28;20089;-59
2023/02/22 05:58:46;;;;;;;12.43;11.63;;;;;;;;;;4995745;28;20423;-59
2023/02/22 06:01:11;;;;;;;13.10;12.20;;;;;;;;;;4995012;28;20030;-59
2023/02/22 06:03:37;;;;;;;12.85;11.95;;;;;;;;;;4994297;28;20081;-59
2023/02/22 06:06:04;;;;;;;12.25;11.45;;;;;;;;;;4993567;28;20042;-59
2023/02/22 06:08:29;;;;;;;11.32;10.63;;;;;;;;;;4997719;28;20471;-59
2023/02/22 06:10:55;;;;;;;11.18;10.38;;;;;;;;;;4995586;28;20054;-59
2023/02/22 06:13:20;;;;;;;13.38;10.93;;;;;;;;;;4994389;28;20033;-60
2023/02/22 06:15:45;;;;;;;11.40;10.60;;;;;;;;;;4995553;28;20356;-59
2023/02/22 06:18:10;;;;;;;13.05;12.07;;;;;;;;;;4991713;28;20412;-60
2023/02/22 06:20:36;;;;;;;13.15;12.05;;;;;;;;;;4996901;28;20057;-60
2023/02/22 06:23:01;;;;;;;11.70;10.90;;;;;;;;;;4995209;28;20366;-60
2023/02/22 06:25:31;;;;;;;11.80;11.00;;;;;;;;;;4996526;28;20124;-59
2023/02/22 06:27:59;;;;;;;11.00;10.30;;;;;;;;;;4997538;28;20061;-61
2023/02/22 06:30:26;;;;;;;11.73;10.95;;;;;;;;;;4998693;28;20124;-59
2023/02/22 06:32:51;;;;;;;11.82;11.07;;;;;;;;;;4992627;28;20041;-59
2023/02/22 06:35:17;;;;;;;12.43;11.63;;;;;;;;;;4986561;28;20037;-60
2023/02/22 06:37:42;;;;;;;11.98;11.23;;;;;;;;;;4994470;28;20052;-59
2023/02/22 06:40:10;;;;;;;13.48;12.57;;;;;;;;;;4993248;28;20124;-59
2023/02/22 06:42:35;;;;;;;13.35;12.40;;;;;;;;;;4993181;28;20033;-59
2023/02/22 06:45:01;;;;;;;11.82;11.05;;;;;;;;;;4995029;28;20034;-59
2023/02/22 06:47:26;;;;;;;12.32;11.52;;;;;;;;;;4996364;28;20044;-59
2023/02/22 06:49:53;;;;;;;12.20;11.30;;;;;;;;;;4996661;28;20129;-59
2023/02/22 06:52:18;;;;;;;11.38;10.50;;;;;;;;;;4993663;28;20088;-59
2023/02/22 06:54:44;;;;;;;11.65;10.93;;;;;;;;;;4995700;28;20042;-58
2023/02/22 06:57:09;;;;;;;11.88;11.13;;;;;;;;;;4993542;28;20113;-59
2023/02/22 06:59:34;;;;;;;14.07;12.98;;;;;;;;;;4991803;28;20038;-59
2023/02/22 07:02:00;;;;;;;13.07;12.07;;;;;;;;;;4994255;28;20045;-59
2023/02/22 07:04:25;;;;;;;14.00;12.90;;;;;;;;;;4993814;28;20025;-59
2023/02/22 07:06:50;;;;;;;13.55;12.65;;;;;;;;;;4993358;28;20428;-59
2023/02/22 07:09:17;;;;;;;14.07;13.13;;;;;;;;;;4995507;28;20038;-60
2023/02/22 07:11:43;;;;;;;12.45;11.68;;;;;;;;;;4993051;28;20396;-60
2023/02/22 07:14:08;;;;;;;14.57;13.68;;;;;;;;;;4992845;28;20034;-59
2023/02/22 07:16:34;;;;;;;13.48;12.60;;;;;;;;;;4994781;28;20456;-60
2023/02/22 07:19:00;;;;;;;13.02;12.13;;;;;;;;;;4992398;28;20031;-60
2023/02/22 07:21:27;;;;;;;13.38;12.43;;;;;;;;;;4991860;28;20170;-60
2023/02/22 07:23:54;;;;;;;15.15;13.88;;;;;;;;;;4970629;28;20025;-59
2023/02/22 07:26:21;;;;;;;13.73;12.55;;;;;;;;;;4991835;28;20046;-60
2023/02/22 07:28:46;;;;;;;13.52;12.63;;;;;;;;;;4994446;28;20045;-59
2023/02/22 07:31:12;;;;;;;11.80;11.02;;;;;;;;;;4996290;28;20049;-60
2023/02/22 07:33:37;;;;;;;12.65;11.65;;;;;;;;;;4995603;28;20125;-60
2023/02/22 07:36:03;;;;;;;11.40;10.70;;;;;;;;;;4994887;28;20085;-60
2023/02/22 07:38:28;;;;;;;11.55;10.75;;;;;;;;;;4992679;28;20060;-63
2023/02/22 07:40:53;;;;;;;11.20;10.43;;;;;;;;;;4996896;28;20035;-60
2023/02/22 07:43:24;;;;;;;10.90;10.20;;;;;;;;;;4995145;28;20038;-60
2023/02/22 07:45:53;;;;;;;12.03;10.97;;;;;;;;;;4993125;28;20030;-59
2023/02/22 07:48:19;;;;;;;11.55;10.52;;;;;;;;;;4997112;28;20780;-60
2023/02/22 07:50:45;;;;;;;24.05;10.65;;;;;;;;;;4996297;28;20046;-59
2023/02/22 07:53:13;;;;;;;10.95;10.25;;;;;;;;;;4993228;28;20498;-59
2023/02/22 07:55:38;;;;;;;11.02;10.30;;;;;;;;;;4993632;28;20038;-59
2023/02/22 07:58:06;;;;;;;11.70;11.00;;;;;;;;;;4990453;28;20391;-59
2023/02/22 08:00:38;;;;;;;12.32;11.43;;;;;;;;;;4990899;28;20049;-60
2023/02/22 08:03:06;;;;;;;13.10;12.20;;;;;;;;;;4993398;28;20039;-59
2023/02/22 08:05:35;;;;;;;12.57;11.82;;;;;;;;;;4992572;28;20039;-60
2023/02/22 08:08:05;;;;;;;13.30;12.50;;;;;;;;;;4991443;28;20404;-59
2023/02/22 08:10:31;;;;;;;14.00;13.10;;;;;;;;;;4983306;28;20037;-60
2023/02/22 08:12:57;;;;;;;15.35;14.35;;;;;;;;;;4992782;28;20121;-62
2023/02/22 08:15:28;;;;;;;13.65;12.63;;;;;;;;;;4993867;28;20096;-60
2023/02/22 08:17:54;;;;;;;16.77;15.60;;;;;;;;;;4994694;28;20041;-57
2023/02/22 08:20:20;;;;;;;14.38;13.48;;;;;;;;;;4993154;28;20045;-58
2023/02/22 08:22:46;;;;;;;14.98;14.00;;;;;;;;;;4995401;28;20123;-58
2023/02/22 08:25:14;;;;;;;14.93;13.98;;;;;;;;;;4995209;28;20046;-58
2023/02/22 08:27:40;;;;;;;14.88;13.95;;;;;;;;;;4999055;28;20127;-58
2023/02/22 08:30:06;;;;;;;15.02;14.02;;;;;;;;;;4997899;28;20123;-58
2023/02/22 08:32:32;;;;;;;14.77;13.85;;;;;;;;;;4993697;28;20059;-60
2023/02/22 08:34:57;;;;;;;14.02;13.13;;;;;;;;;;4999488;28;20029;-60
2023/02/22 08:37:22;;;;;;;13.10;12.30;;;;;;;;;;4994547;28;20081;-60
2023/02/22 08:39:48;;;;;;;14.05;13.15;;;;;;;;;;4996969;28;20118;-60
2023/02/22 08:42:13;;;;;;;13.77;12.82;;;;;;;;;;4995793;28;20527;-61
2023/02/22 08:44:39;;;;;;;13.75;12.85;;;;;;;;;;4993072;28;20621;-60
2023/02/22 08:47:05;;;;;;;13.90;13.02;;;;;;;;;;4998344;28;20516;-60
2023/02/22 08:49:31;;;;;;;13.43;12.60;;;;;;;;;;4996358;28;20069;-60
2023/02/22 08:51:56;;;;;;;13.38;12.40;;;;;;;;;;4996505;28;20033;-60
2023/02/22 08:54:21;;;;;;;12.38;11.52;;;;;;;;;;4997810;28;20106;-60
2023/02/22 08:56:47;;;;;;;12.93;12.13;;;;;;;;;;4997662;28;20034;-60
2023/02/22 08:59:13;;;;;;;15.23;14.18;;;;;;;;;;4997774;28;20109;-60
2023/02/22 09:01:39;;;;;;;14.32;13.35;;;;;;;;;;4998101;28;20114;-60
2023/02/22 09:04:04;;;;;;;13.43;12.52;;;;;;;;;;5000627;28;20030;-60
2023/02/22 09:06:29;;;;;;;13.20;12.30;;;;;;;;;;4981891;28;20038;-60
2023/02/22 09:08:55;;;;;;;13.40;12.50;;;;;;;;;;4998712;28;20030;-59
2023/02/22 09:11:20;;;;;;;13.25;12.35;;;;;;;;;;4997783;28;20042;-59
2023/02/22 09:13:45;;;;;;;13.20;12.30;;;;;;;;;;4995072;28;20105;-59
2023/02/22 09:16:11;;;;;;;13.02;12.13;;;;;;;;;;4995562;28;20033;-59
2023/02/22 09:18:37;;;;;;;12.52;11.73;;;;;;;;;;4997659;28;20636;-58
2023/02/22 09:21:03;;;;;;;12.65;11.82;;;;;;;;;;5000295;28;20030;-59
2023/02/22 09:23:28;;;;;;;13.68;12.77;;;;;;;;;;4999035;28;20069;-59
2023/02/22 09:25:54;;;;;;;11.63;10.82;;;;;;;;;;4996430;28;20066;-59
2023/02/22 09:28:19;;;;;;;12.82;12.00;;;;;;;;;;4994804;28;20041;-58
2023/02/22 09:30:44;;;;;;;12.13;11.23;;;;;;;;;;4996491;28;20033;-59
2023/02/22 09:33:17;;;;;;;12.05;11.25;;;;;;;;;;4997929;28;20096;-59
2023/02/22 09:35:46;;;;;;;16.20;12.40;;;;;;;;;;4996307;28;20042;-59
2023/02/22 09:38:14;;;;;;;11.60;10.80;;;;;;;;;;4999783;28;20037;-59
2023/02/22 09:40:45;;;;;;;11.40;10.60;;;;;;;;;;5000376;28;20057;-59
2023/02/22 09:43:31;;;;;;;12.00;11.20;;;;;;;;;;4998176;28;20033;-58
2023/02/22 09:46:25;;;;;;;11.80;11.00;;;;;;;;;;4995596;28;20173;-58
2023/02/22 09:49:04;;;;;;;11.63;10.82;;;;;;;;;;4996367;28;20061;-59
2023/02/22 09:51:40;;;;;;;12.85;11.68;;;;;;;;;;4995445;28;20072;-59
2023/02/22 09:54:13;;;;;;;12.13;11.43;;;;;;;;;;4999815;28;20096;-59
2023/02/22 09:56:40;;;;;;;11.68;10.77;;;;;;;;;;4995264;28;20026;-58
2023/02/22 09:59:11;;;;;;;12.77;11.98;;;;;;;;;;4997345;28;20463;-59
2023/02/22 10:01:47;;;;;;;11.23;10.52;;;;;;;;;;4996172;28;20060;-59
2023/02/22 10:04:40;;;;;;;13.38;12.48;;;;;;;;;;4996268;28;20072;-59
2023/02/22 10:07:24;;;;;;;11.75;10.95;;;;;;;;;;4996789;28;20050;-58
2023/02/22 10:09:55;;;;;;;12.90;12.00;;;;;;;;;;4998050;28;20034;-60
2023/02/22 10:12:46;;;;;;;11.90;11.10;;;;;;;;;;4997183;28;20039;-60
2023/02/22 10:15:21;;;;;;;11.27;10.48;;;;;;;;;;4997321;28;20073;-60
2023/02/22 10:18:16;;;;;;;12.45;11.65;;;;;;;;;;4991602;28;20104;-60
2023/02/22 10:21:07;;;;;;;13.88;12.88;;;;;;;;;;4996988;28;20045;-60
2023/02/22 10:23:37;;;;;;;13.43;12.50;;;;;;;;;;4994632;28;20038;-60
2023/02/22 10:26:17;;;;;;;12.23;11.13;;;;;;;;;;4995511;28;20038;-60
2023/02/22 10:29:12;;;;;;;13.48;12.57;;;;;;;;;;4995854;28;20034;-60
2023/02/22 10:31:45;;;;;;;12.00;11.20;;;;;;;;;;4993963;28;20046;-60
2023/02/22 10:34:16;;;;;;;12.10;11.30;;;;;;;;;;4994467;28;20149;-60
2023/02/22 10:36:48;;;;;;;12.02;11.18;;;;;;;;;;4992923;28;20034;-60
2023/02/22 10:39:33;;;;;;;12.20;11.30;;;;;;;;;;4995904;28;20038;-60
2023/02/22 10:42:08;;;;;;;12.07;11.10;;;;;;;;;;4996002;28;20096;-59
2023/02/22 10:44:37;;;;;;;12.93;12.02;;;;;;;;;;4992397;28;20394;-59
2023/02/22 10:47:07;;;;;;;12.00;11.23;;;;;;;;;;4993313;28;20113;-59
2023/02/22 10:49:38;;;;;;;12.35;11.55;;;;;;;;;;4994990;28;20125;-58
2023/02/22 10:52:12;;;;;;;14.77;13.35;;;;;;;;;;4997657;28;20109;-59
2023/02/22 10:54:41;;;;;;;11.85;11.10;;;;;;;;;;4994482;28;20033;-59
2023/02/22 10:57:09;;;;;;;12.18;11.38;;;;;;;;;;4992723;28;20031;-59
2023/02/22 10:59:37;;;;;;;13.98;12.95;;;;;;;;;;4994287;28;20038;-59
2023/02/22 11:02:14;;;;;;;12.75;11.52;;;;;;;;;;4992640;28;20373;-59
2023/02/22 11:04:51;;;;;;;12.85;11.90;;;;;;;;;;4995557;28;20082;-58
2023/02/22 11:07:19;;;;;;;15.88;14.77;;;;;;;;;;4994648;28;20030;-59
2023/02/22 11:09:54;;;;;;;13.40;12.60;;;;;;;;;;4994299;28;20124;-59
2023/02/22 11:12:26;;;;;;;14.50;13.48;;;;;;;;;;4995401;28;20038;-59
2023/02/22 11:14:51;;;;;;;16.23;14.63;;;;;;;;;;4994200;28;20177;-59
2023/02/22 11:17:39;;;;;;;14.30;13.30;;;;;;;;;;4994472;28;20112;-59
2023/02/22 11:20:06;;;;;;;14.52;13.57;;;;;;;;;;4996834;28;20036;-59
2023/02/22 11:22:41;;;;;;;13.32;12.52;;;;;;;;;;4993987;28;20349;-59
2023/02/22 11:25:18;;;;;;;14.50;13.50;;;;;;;;;;4992223;28;20045;-59
2023/02/22 11:27:45;;;;;;;14.27;13.38;;;;;;;;;;4993477;28;20028;-59
2023/02/22 11:30:31;;;;;;;13.45;12.45;;;;;;;;;;4994462;28;20121;-59
2023/02/22 11:33:04;;;;;;;13.07;12.27;;;;;;;;;;4996194;28;20403;-59
2023/02/22 11:35:48;;;;;;;13.40;12.38;;;;;;;;;;4993689;28;20460;-59
2023/02/22 11:38:19;;;;;;;13.52;12.63;;;;;;;;;;4994431;28;20073;-59
2023/02/22 11:40:47;;;;;;;13.95;13.05;;;;;;;;;;4999940;28;20049;-60
2023/02/22 11:43:18;;;;;;;11.35;10.65;;;;;;;;;;4993453;28;20072;-59
2023/02/22 11:46:04;;;;;;;13.00;12.10;;;;;;;;;;4995220;28;20042;-59
2023/02/22 11:48:34;;;;;;;13.77;12.88;;;;;;;;;;4996366;28;20041;-59
2023/02/22 11:51:15;;;;;;;13.85;12.88;;;;;;;;;;4994372;28;20052;-59
2023/02/22 11:53:43;;;;;;;13.85;12.95;;;;;;;;;;4991740;28;20045;-59
2023/02/22 11:56:24;;;;;;;14.68;13.57;;;;;;;;;;4992567;28;20133;-59
2023/02/22 11:59:33;;;;;;;13.13;12.23;;;;;;;;;;4995129;28;20069;-59
2023/02/22 12:02:11;;;;;;;14.02;12.90;;;;;;;;;;4955832;28;20039;-59
2023/02/22 12:04:58;;;;;;;13.07;12.07;;;;;;;;;;4990775;28;20349;-59
2023/02/22 12:07:47;;;;;;;14.65;13.55;;;;;;;;;;4996686;28;20046;-59
2023/02/22 12:10:25;;;;;;;13.85;12.95;;;;;;;;;;4994006;28;20052;-59
2023/02/22 12:13:08;;;;;;;12.82;12.02;;;;;;;;;;4994750;28;20076;-59
2023/02/22 12:15:55;;;;;;;14.35;13.07;;;;;;;;;;4994141;28;20031;-59
2023/02/22 12:18:31;;;;;;;14.02;13.10;;;;;;;;;;4994470;28;20536;-59
2023/02/22 12:21:00;;;;;;;16.30;15.23;;;;;;;;;;4995513;28;20105;-59
2023/02/22 12:23:59;;;;;;;12.68;11.68;;;;;;;;;;4997794;28;20073;-59
2023/02/22 12:26:40;;;;;;;14.57;13.07;;;;;;;;;;4993787;28;20030;-59
2023/02/22 12:29:15;;;;;;;14.38;13.35;;;;;;;;;;4996251;28;20515;-59
2023/02/22 12:31:52;;;;;;;14.52;13.52;;;;;;;;;;4993163;28;20154;-59
2023/02/22 12:34:20;;;;;;;14.02;13.10;;;;;;;;;;4998047;28;20029;-59
2023/02/22 12:36:50;;;;;;;12.95;12.05;;;;;;;;;;4993696;28;20053;-59
2023/02/22 12:39:28;;;;;;;16.07;14.83;;;;;;;;;;4993624;28;20053;-59
2023/02/22 12:41:54;;;;;;;15.38;14.27;;;;;;;;;;4994671;28;20057;-59
2023/02/22 12:44:36;;;;;;;14.27;13.27;;;;;;;;;;4992135;28;20030;-59
2023/02/22 12:47:05;;;;;;;12.98;12.18;;;;;;;;;;4992013;28;20122;-59
2023/02/22 12:50:18;;;;;;;15.25;14.25;;;;;;;;;;4993298;28;20045;-59
2023/02/22 12:52:52;;;;;;;15.63;14.52;;;;;;;;;;4980848;28;20053;-59
2023/02/22 12:55:24;;;;;;;13.90;13.07;;;;;;;;;;4992224;28;20100;-59
2023/02/22 12:58:07;;;;;;;16.88;15.77;;;;;;;;;;4992980;28;20657;-60
2023/02/22 13:00:45;;;;;;;17.92;16.73;;;;;;;;;;4994757;28;20053;-60
2023/02/22 13:03:29;;;;;;;17.65;15.07;;;;;;;;;;4993872;28;20500;-59
2023/02/22 13:06:03;;;;;;;20.23;19.00;;;;;;;;;;4993101;28;20042;-59
2023/02/22 13:08:40;;;;;;;18.92;17.83;;;;;;;;;;4998371;28;20030;-59
2023/02/22 13:11:30;;;;;;;21.45;20.15;;;;;;;;;;4998130;28;20057;-60
2023/02/22 13:14:23;;;;;;;20.50;19.30;;;;;;;;;;4995226;28;20050;-59
2023/02/22 13:16:57;;;;;;;18.35;17.15;;;;;;;;;;4995582;28;20384;-59
2023/02/22 13:20:10;;;;;;;20.35;19.10;;;;;;;;;;4996352;28;20144;-59
2023/02/22 13:22:40;;;;;;;19.80;18.60;;;;;;;;;;4993801;28;20053;-59
2023/02/22 13:25:08;;;;;;;20.63;19.42;;;;;;;;;;5004341;28;20077;-59
2023/02/22 13:27:40;;;;;;;22.90;21.50;;;;;;;;;;4994356;28;20527;-60
2023/02/22 13:30:22;;;;;;;24.02;22.60;;;;;;;;;;4997296;28;20561;-59
2023/02/22 13:33:02;;;;;;;22.02;20.80;;;;;;;;;;4997020;28;20030;-59
2023/02/22 13:35:42;;;;;;;22.92;21.58;;;;;;;;;;4995463;28;20071;-59
2023/02/22 13:38:22;;;;;;;23.05;21.55;;;;;;;;;;4996123;28;20069;-59
2023/02/22 13:41:32;;;;;;;22.73;21.43;;;;;;;;;;4995120;28;20053;-59
2023/02/22 13:44:19;;;;;;;22.33;21.05;;;;;;;;;;4995232;28;20436;-59
2023/02/22 13:47:21;;;;;;;23.05;21.70;;;;;;;;;;4994825;28;20508;-59
2023/02/22 13:50:12;;;;;;;24.45;23.00;;;;;;;;;;4994000;28;20046;-59
2023/02/22 13:52:39;;;;;;;22.73;21.42;;;;;;;;;;4995623;28;20037;-59
2023/02/22 13:55:14;;;;;;;24.77;23.27;;;;;;;;;;4995080;28;20038;-59
2023/02/22 13:57:48;;;;;;;25.30;23.70;;;;;;;;;;4997424;28;20465;-59
2023/02/22 14:00:14;;;;;;;22.88;21.58;;;;;;;;;;4996623;28;20089;-59
2023/02/22 14:03:05;;;;;;;22.98;21.48;;;;;;;;;;4997537;28;20641;-59
2023/02/22 14:05:40;;;;;;;20.45;19.25;;;;;;;;;;4995000;28;20736;-59
2023/02/22 14:08:29;;;;;;;22.67;21.27;;;;;;;;;;5001689;28;20037;-59
2023/02/22 14:11:11;;;;;;;20.83;19.42;;;;;;;;;;4995685;28;20054;-59
2023/02/22 14:13:59;;;;;;;19.35;18.13;;;;;;;;;;4996836;28;20475;-59
2023/02/22 14:16:32;;;;;;;20.30;18.98;;;;;;;;;;4995626;28;20030;-60
2023/02/22 14:19:14;;;;;;;21.10;19.73;;;;;;;;;;4997861;28;20083;-61
2023/02/22 14:22:07;;;;;;;20.38;19.13;;;;;;;;;;4995303;28;20038;-62
2023/02/22 14:24:45;;;;;;;18.15;17.05;;;;;;;;;;4996305;28;20060;-61
2023/02/22 14:27:12;;;;;;;18.75;17.52;;;;;;;;;;4993690;28;20060;-61
2023/02/22 14:29:52;;;;;;;19.67;18.40;;;;;;;;;;4993625;28;20404;-58
2023/02/22 14:32:19;;;;;;;21.70;20.15;;;;;;;;;;4995142;28;20089;-58
2023/02/22 14:34:53;;;;;;;19.63;18.42;;;;;;;;;;4995067;28;20038;-59
2023/02/22 14:37:23;;;;;;;20.15;18.80;;;;;;;;;;4995118;28;20128;-60
2023/02/22 14:39:56;;;;;;;19.10;17.90;;;;;;;;;;4996996;28;20184;-58
2023/02/22 14:42:28;;;;;;;18.70;17.42;;;;;;;;;;5001982;28;20046;-61
2023/02/22 14:44:58;;;;;;;17.95;16.85;;;;;;;;;;4993924;28;20030;-59
2023/02/22 14:47:42;;;;;;;19.60;18.20;;;;;;;;;;4993652;28;20149;-58